Time;durP1;ratioP1;P1;durP2;ratioP2;P2;SDS_P1;SDS_P2;PMS_P1;PMS_P2;Temp;Humidity;BMP_temperature;BMP_pressure;BME280_temperature;BME280_humidity;BME280_pressure;Samples;Min_cycle;Max_cycle;Signal;HPM_P1;HPM_P2
2022/03/13 00:00:11;;;;;;;1.63;1.30;;;18.60;41.80;;;;;;5073258;28;20031;-57
2022/03/13 00:02:37;;;;;;;4.30;1.33;;;18.60;41.80;;;;;;5073147;28;20063;-56
2022/03/13 00:05:05;;;;;;;1.70;1.17;;;18.60;41.80;;;;;;5073199;28;20031;-52
2022/03/13 00:07:34;;;;;;;1.55;1.20;;;18.50;41.80;;;;;;5072943;28;20020;-55
2022/03/13 00:09:59;;;;;;;1.30;1.13;;;18.50;41.80;;;;;;5055533;28;20356;-54
2022/03/13 00:12:31;;;;;;;1.40;1.30;;;18.50;41.80;;;;;;5073062;28;20099;-55
2022/03/13 00:14:58;;;;;;;1.92;1.27;;;18.50;41.80;;;;;;5073019;28;20017;-56
2022/03/13 00:17:28;;;;;;;1.75;1.27;;;18.50;41.80;;;;;;5072319;28;20090;-56
2022/03/13 00:20:00;;;;;;;1.17;0.98;;;18.50;41.80;;;;;;5055571;28;20048;-57
2022/03/13 00:22:27;;;;;;;1.73;1.10;;;18.50;41.80;;;;;;5072905;28;20008;-56
2022/03/13 00:24:53;;;;;;;1.90;1.25;;;18.50;41.80;;;;;;5072581;28;20031;-57
2022/03/13 00:27:20;;;;;;;1.70;1.60;;;18.50;41.80;;;;;;5072803;28;20017;-57
2022/03/13 00:29:46;;;;;;;1.98;1.60;;;18.50;41.80;;;;;;5072857;28;20035;-56
2022/03/13 00:32:12;;;;;;;1.30;1.17;;;18.50;41.80;;;;;;5072853;28;20024;-57
2022/03/13 00:34:38;;;;;;;1.13;1.02;;;18.50;41.80;;;;;;5054613;28;20012;-59
2022/03/13 00:37:05;;;;;;;1.85;1.20;;;18.50;41.80;;;;;;5072503;28;20009;-57
2022/03/13 00:39:31;;;;;;;1.52;1.30;;;18.50;41.80;;;;;;5072666;28;20021;-57
2022/03/13 00:41:57;;;;;;;1.95;1.25;;;18.50;41.80;;;;;;5072863;28;20020;-55
2022/03/13 00:44:23;;;;;;;1.45;1.20;;;18.50;41.90;;;;;;5073117;28;20017;-57
2022/03/13 00:46:50;;;;;;;2.03;1.30;;;18.50;41.80;;;;;;5073397;28;20016;-58
2022/03/13 00:49:16;;;;;;;1.88;1.23;;;18.50;41.80;;;;;;5073219;28;20038;-57
2022/03/13 00:51:42;;;;;;;1.98;1.33;;;18.50;41.80;;;;;;5072724;28;20021;-57
2022/03/13 00:54:09;;;;;;;1.92;1.33;;;18.50;41.90;;;;;;5072941;28;20078;-57
2022/03/13 00:56:35;;;;;;;2.45;1.30;;;18.50;41.90;;;;;;5073376;28;20089;-57
2022/03/13 00:59:01;;;;;;;2.25;1.20;;;18.50;41.90;;;;;;5072931;28;20012;-58
2022/03/13 01:01:27;;;;;;;1.38;1.23;;;18.50;41.90;;;;;;5072914;28;20012;-57
2022/03/13 01:03:55;;;;;;;1.88;1.13;;;18.40;41.90;;;;;;5073059;28;20036;-55
2022/03/13 01:06:40;;;;;;;1.92;1.35;;;18.50;41.90;;;;;;5071205;28;20479;-57
2022/03/13 01:09:06;;;;;;;1.60;1.50;;;18.50;41.90;;;;;;5072270;28;20032;-58
2022/03/13 01:11:32;;;;;;;1.80;1.20;;;18.40;41.90;;;;;;5072561;28;20100;-57
2022/03/13 01:13:58;;;;;;;2.25;1.33;;;18.40;41.90;;;;;;5072385;28;20021;-59
2022/03/13 01:16:33;;;;;;;1.45;1.35;;;18.50;41.90;;;;;;5072651;28;20021;-57
2022/03/13 01:18:59;;;;;;;1.48;1.33;;;18.40;41.90;;;;;;5072409;28;20112;-56
2022/03/13 01:21:26;;;;;;;1.73;1.27;;;18.40;41.90;;;;;;5073050;28;20029;-57
2022/03/13 01:24:00;;;;;;;1.30;1.20;;;18.40;41.90;;;;;;5072868;28;20020;-56
2022/03/13 01:26:27;;;;;;;1.42;1.20;;;18.40;41.90;;;;;;5072950;28;20104;-57
2022/03/13 01:29:03;;;;;;;1.60;1.40;;;18.40;41.90;;;;;;5072697;28;20021;-57
2022/03/13 01:31:30;;;;;;;1.35;1.10;;;18.40;41.90;;;;;;5075506;28;20081;-59
2022/03/13 01:33:58;;;;;;;1.55;1.20;;;18.40;41.90;;;;;;5075521;28;20024;-55
2022/03/13 01:36:25;;;;;;;1.80;1.38;;;18.40;41.90;;;;;;5075633;28;20013;-58
2022/03/13 01:38:53;;;;;;;1.55;1.20;;;18.40;41.90;;;;;;5076216;28;20036;-57
2022/03/13 01:41:19;;;;;;;1.75;1.40;;;18.40;41.90;;;;;;5077251;28;20017;-58
2022/03/13 01:43:45;;;;;;;1.20;1.10;;;18.40;41.90;;;;;;5076622;28;20020;-58
2022/03/13 01:46:10;;;;;;;2.63;1.50;;;18.40;41.90;;;;;;5077340;28;20082;-58
2022/03/13 01:49:03;;;;;;;1.70;1.30;;;18.40;41.90;;;;;;5077059;28;20107;-56
2022/03/13 01:51:33;;;;;;;1.45;1.00;;;18.40;41.90;;;;;;5077444;28;20017;-57
2022/03/13 01:54:01;;;;;;;1.48;1.20;;;18.40;41.90;;;;;;5077270;28;20020;-56
2022/03/13 01:56:27;;;;;;;1.67;1.40;;;18.40;41.90;;;;;;5059899;28;20048;-58
2022/03/13 01:58:54;;;;;;;1.25;0.98;;;18.40;42.50;;;;;;5076827;28;20005;-58
2022/03/13 02:01:21;;;;;;;1.75;1.27;;;18.40;42.00;;;;;;5075329;28;20483;-57
2022/03/13 02:03:47;;;;;;;1.25;1.00;;;18.40;42.00;;;;;;5075300;28;20016;-56
2022/03/13 02:06:13;;;;;;;1.60;1.20;;;18.40;42.00;;;;;;5074955;28;20096;-56
2022/03/13 02:08:41;;;;;;;1.85;1.30;;;18.30;41.90;;;;;;5074890;28;20017;-57
2022/03/13 02:11:07;;;;;;;1.40;1.30;;;18.40;42.00;;;;;;5075170;28;20025;-57
2022/03/13 02:13:34;;;;;;;1.55;1.30;;;18.40;42.00;;;;;;5074841;28;20012;-57
2022/03/13 02:16:00;;;;;;;1.70;1.30;;;18.30;42.00;;;;;;5074749;28;20029;-55
2022/03/13 02:18:27;;;;;;;1.60;1.40;;;18.40;42.00;;;;;;5056953;28;20044;-57
2022/03/13 02:20:53;;;;;;;1.50;1.30;;;18.30;42.00;;;;;;5074655;28;20032;-57
2022/03/13 02:23:25;;;;;;;1.40;1.20;;;18.30;42.00;;;;;;5074639;28;20025;-58
2022/03/13 02:25:52;;;;;;;2.15;1.30;;;18.30;42.00;;;;;;5074587;28;20021;-58
2022/03/13 02:28:19;;;;;;;1.38;1.15;;;18.30;42.00;;;;;;5074511;28;20464;-58
2022/03/13 02:30:46;;;;;;;1.80;1.40;;;18.30;42.00;;;;;;5074673;28;20534;-58
2022/03/13 02:33:12;;;;;;;1.42;1.33;;;18.30;42.00;;;;;;5074528;28;21111;-59
2022/03/13 02:35:39;;;;;;;1.70;1.50;;;18.30;42.00;;;;;;5057086;28;20009;-59
2022/03/13 02:38:05;;;;;;;1.33;1.23;;;18.30;42.00;;;;;;5074438;28;20031;-58
2022/03/13 02:40:32;;;;;;;1.58;1.40;;;18.30;42.10;;;;;;5074285;28;20075;-58
2022/03/13 02:42:58;;;;;;;1.88;1.33;;;18.30;42.10;;;;;;5074577;28;20095;-58
2022/03/13 02:45:29;;;;;;;1.40;1.30;;;18.30;42.10;;;;;;5074125;28;20043;-56
2022/03/13 02:47:56;;;;;;;;;;;18.30;42.20;;;;;;5056958;28;20043;-58
2022/03/13 02:50:22;;;;;;;1.90;1.50;;;18.30;42.20;;;;;;5072784;28;20386;-57
2022/03/13 02:52:48;;;;;;;1.52;1.30;;;18.30;42.20;;;;;;5056659;28;20020;-57
2022/03/13 02:55:14;;;;;;;1.77;1.50;;;18.20;42.20;;;;;;5074000;28;20011;-58
2022/03/13 02:57:41;;;;;;;1.85;1.58;;;18.20;42.20;;;;;;5073934;28;20013;-58
2022/03/13 03:00:08;;;;;;;2.10;1.88;;;18.20;42.30;;;;;;5074105;28;20017;-58
2022/03/13 03:02:35;;;;;;;1.52;1.30;;;18.20;42.40;;;;;;5056159;28;20027;-58
2022/03/13 03:05:04;;;;;;;1.73;1.23;;;18.20;42.30;;;;;;5073772;28;20483;-58
2022/03/13 03:07:30;;;;;;;1.30;1.20;;;18.20;42.30;;;;;;5074064;28;20021;-58
2022/03/13 03:09:57;;;;;;;2.05;1.50;;;18.20;42.30;;;;;;5073888;28;20107;-58
2022/03/13 03:12:22;;;;;;;2.00;1.45;;;18.30;42.40;;;;;;5073936;28;20075;-58
2022/03/13 03:14:48;;;;;;;1.50;1.40;;;18.20;42.30;;;;;;5073583;28;20016;-58
2022/03/13 03:17:14;;;;;;;1.83;1.42;;;18.20;42.30;;;;;;5073449;28;20051;-58
2022/03/13 03:19:40;;;;;;;2.30;1.48;;;18.20;42.40;;;;;;5073822;28;20051;-58
2022/03/13 03:22:07;;;;;;;1.58;1.40;;;18.20;42.40;;;;;;5073457;28;20074;-58
2022/03/13 03:24:34;;;;;;;1.52;1.40;;;18.20;42.40;;;;;;5055929;28;20077;-58
2022/03/13 03:26:59;;;;;;;1.40;1.30;;;18.20;42.40;;;;;;5073418;28;20017;-58
2022/03/13 03:29:26;;;;;;;1.27;1.17;;;18.30;42.50;;;;;;5055829;28;20047;-58
2022/03/13 03:31:53;;;;;;;1.40;1.30;;;18.20;42.40;;;;;;5073534;28;20020;-57
2022/03/13 03:34:20;;;;;;;1.70;1.60;;;18.20;42.40;;;;;;5073192;28;20004;-58
2022/03/13 03:36:51;;;;;;;1.73;1.30;;;18.20;42.50;;;;;;5073194;28;20067;-58
2022/03/13 03:39:18;;;;;;;2.03;1.50;;;18.20;42.60;;;;;;5073414;28;20012;-58
2022/03/13 03:41:45;;;;;;;2.00;1.67;;;18.20;42.50;;;;;;5073178;28;20016;-58
2022/03/13 03:44:12;;;;;;;1.85;1.40;;;18.20;42.60;;;;;;5073003;28;20082;-58
2022/03/13 03:46:40;;;;;;;1.73;1.50;;;18.20;42.60;;;;;;5072751;28;20040;-58
2022/03/13 03:49:05;;;;;;;2.25;1.63;;;18.20;42.60;;;;;;5073378;28;20016;-58
2022/03/13 03:51:32;;;;;;;1.88;1.50;;;18.20;42.60;;;;;;5073199;28;20552;-58
2022/03/13 03:53:58;;;;;;;1.35;1.25;;;18.20;42.60;;;;;;5072815;28;20047;-58
2022/03/13 03:56:23;;;;;;;2.22;1.67;;;18.20;42.60;;;;;;5073242;28;20408;-58
2022/03/13 03:58:50;;;;;;;1.55;1.45;;;18.20;42.70;;;;;;5072854;28;20091;-58
2022/03/13 04:01:17;;;;;;;2.22;1.70;;;18.20;42.70;;;;;;5073135;28;20051;-60
2022/03/13 04:03:44;;;;;;;1.60;1.50;;;18.20;42.60;;;;;;5073169;28;20032;-60
2022/03/13 04:06:09;;;;;;;1.88;1.63;;;18.20;42.60;;;;;;5072762;28;20474;-60
2022/03/13 04:08:35;;;;;;;2.25;1.50;;;18.20;42.70;;;;;;5072965;28;20021;-60
2022/03/13 04:11:02;;;;;;;1.45;1.35;;;18.20;42.60;;;;;;5072744;28;20053;-60
2022/03/13 04:13:28;;;;;;;1.50;1.40;;;18.20;42.60;;;;;;5073090;28;20016;-60
2022/03/13 04:15:55;;;;;;;1.65;1.30;;;18.20;42.60;;;;;;5072821;28;20005;-60
2022/03/13 04:18:21;;;;;;;1.73;1.30;;;18.20;42.60;;;;;;5072884;28;20060;-60
2022/03/13 04:20:48;;;;;;;2.85;1.52;;;18.20;42.60;;;;;;5073486;28;20024;-60
2022/03/13 04:23:14;;;;;;;1.63;1.50;;;18.20;42.60;;;;;;5073475;28;20029;-60
2022/03/13 04:25:39;;;;;;;1.40;1.30;;;18.20;42.70;;;;;;5055463;28;20017;-60
2022/03/13 04:28:08;;;;;;;2.08;1.45;;;18.20;42.60;;;;;;5073551;28;20021;-60
2022/03/13 04:30:35;;;;;;;1.48;1.33;;;18.20;42.70;;;;;;5073041;28;20104;-60
2022/03/13 04:33:01;;;;;;;1.58;1.40;;;18.20;42.60;;;;;;5072503;28;20494;-60
2022/03/13 04:35:27;;;;;;;1.67;1.38;;;18.10;42.70;;;;;;5072549;28;20017;-60
2022/03/13 04:37:53;;;;;;;1.70;1.48;;;18.10;42.70;;;;;;5072461;28;20029;-60
2022/03/13 04:40:21;;;;;;;1.90;1.30;;;18.20;42.70;;;;;;5072772;28;20013;-59
2022/03/13 04:42:47;;;;;;;1.58;1.40;;;18.20;42.70;;;;;;5072312;28;20535;-59
2022/03/13 04:45:13;;;;;;;2.05;1.50;;;18.20;42.70;;;;;;5072528;28;20101;-59
2022/03/13 04:47:39;;;;;;;1.50;1.35;;;18.20;42.80;;;;;;5072761;28;20020;-59
2022/03/13 04:50:08;;;;;;;1.50;1.40;;;18.20;42.70;;;;;;5054369;28;20390;-59
2022/03/13 04:52:34;;;;;;;1.98;1.25;;;18.20;42.70;;;;;;5072736;28;20017;-59
2022/03/13 04:55:00;;;;;;;1.42;1.30;;;18.20;42.70;;;;;;5072616;28;20050;-59
2022/03/13 04:57:25;;;;;;;1.23;1.13;;;18.20;42.80;;;;;;5072400;28;20564;-59
2022/03/13 04:59:54;;;;;;;1.50;1.40;;;18.10;42.70;;;;;;5072689;28;20029;-59
2022/03/13 05:02:20;;;;;;;1.40;1.30;;;18.20;42.80;;;;;;5073169;28;20032;-59
2022/03/13 05:04:47;;;;;;;1.63;1.52;;;18.20;42.80;;;;;;5073365;28;20024;-59
2022/03/13 05:07:13;;;;;;;1.65;1.42;;;18.10;42.80;;;;;;5076037;28;20508;-59
2022/03/13 05:09:39;;;;;;;2.22;1.50;;;18.10;42.80;;;;;;5076544;28;20029;-59
2022/03/13 05:12:08;;;;;;;3.83;1.50;;;18.10;42.80;;;;;;5076043;28;20375;-59
2022/03/13 05:14:34;;;;;;;1.48;1.30;;;18.10;42.90;;;;;;5076585;28;20106;-59
2022/03/13 05:16:59;;;;;;;1.20;1.10;;;18.10;42.80;;;;;;5076196;28;20072;-59
2022/03/13 05:19:25;;;;;;;1.50;1.38;;;18.10;42.80;;;;;;5076213;28;20009;-59
2022/03/13 05:21:51;;;;;;;2.20;1.50;;;18.10;42.80;;;;;;5058097;28;20457;-59
2022/03/13 05:24:17;;;;;;;1.58;1.45;;;18.10;42.80;;;;;;5058356;28;20027;-59
2022/03/13 05:26:44;;;;;;;2.95;1.50;;;18.10;42.90;;;;;;5057960;28;20034;-59
2022/03/13 05:29:11;;;;;;;1.58;1.48;;;18.10;42.90;;;;;;5076179;28;20017;-59
2022/03/13 05:31:37;;;;;;;1.30;1.20;;;18.10;42.90;;;;;;5058311;28;20025;-59
2022/03/13 05:34:04;;;;;;;1.42;1.33;;;18.10;42.90;;;;;;5075971;28;20055;-59
2022/03/13 05:36:30;;;;;;;1.30;1.20;;;18.10;43.00;;;;;;5075871;28;20070;-59
2022/03/13 05:38:57;;;;;;;1.50;1.40;;;18.10;43.00;;;;;;5058204;28;20048;-58
2022/03/13 05:41:23;;;;;;;1.50;1.35;;;18.10;43.00;;;;;;5075858;28;20043;-59
2022/03/13 05:43:50;;;;;;;2.00;1.67;;;18.10;43.00;;;;;;5075454;28;20104;-59
2022/03/13 05:46:16;;;;;;;1.50;1.20;;;18.10;43.00;;;;;;5057730;28;20016;-59
2022/03/13 05:48:42;;;;;;;3.03;1.50;;;18.10;43.00;;;;;;5075719;28;20112;-59
2022/03/13 05:51:08;;;;;;;1.70;1.30;;;18.10;43.00;;;;;;5075779;28;20112;-59
2022/03/13 05:53:34;;;;;;;1.50;1.40;;;18.10;43.10;;;;;;5076330;28;20013;-59
2022/03/13 05:56:00;;;;;;;2.40;1.58;;;18.10;43.10;;;;;;5075866;28;20035;-59
2022/03/13 05:58:27;;;;;;;1.40;1.30;;;18.10;43.10;;;;;;5075772;28;20039;-59
2022/03/13 06:01:03;;;;;;;1.55;1.45;;;18.10;43.10;;;;;;5075864;28;20391;-59
2022/03/13 06:03:29;;;;;;;2.30;1.88;;;18.10;43.10;;;;;;5075382;28;20023;-59
2022/03/13 06:05:56;;;;;;;1.30;1.20;;;18.10;43.10;;;;;;5075405;28;20028;-59
2022/03/13 06:08:22;;;;;;;1.90;1.38;;;18.10;43.10;;;;;;5075391;28;20021;-59
2022/03/13 06:10:48;;;;;;;2.47;1.60;;;18.00;43.10;;;;;;5075152;28;20032;-59
2022/03/13 06:13:14;;;;;;;1.63;1.50;;;18.00;43.10;;;;;;5057393;28;20020;-59
2022/03/13 06:15:40;;;;;;;3.00;1.40;;;18.00;43.10;;;;;;5074823;28;20017;-59
2022/03/13 06:18:06;;;;;;;1.40;1.30;;;18.00;43.10;;;;;;5074700;28;20116;-59
2022/03/13 06:20:33;;;;;;;2.58;1.48;;;18.00;43.10;;;;;;5075219;28;20761;-59
2022/03/13 06:22:59;;;;;;;2.03;1.40;;;18.00;43.10;;;;;;5075052;28;20116;-59
2022/03/13 06:25:25;;;;;;;1.52;1.42;;;18.10;43.20;;;;;;5074808;28;20103;-59
2022/03/13 06:27:52;;;;;;;1.70;1.40;;;18.10;43.10;;;;;;5074843;28;20103;-59
2022/03/13 06:30:19;;;;;;;1.85;1.60;;;18.10;43.20;;;;;;5074827;28;20024;-59
2022/03/13 06:32:47;;;;;;;1.60;1.38;;;18.10;43.20;;;;;;5074484;28;20088;-59
2022/03/13 06:35:14;;;;;;;1.70;1.60;;;18.10;43.20;;;;;;5075028;28;20012;-59
2022/03/13 06:37:40;;;;;;;3.92;1.85;;;18.00;43.20;;;;;;5040733;28;20013;-58
2022/03/13 06:40:06;;;;;;;1.60;1.50;;;18.00;43.20;;;;;;5074618;28;20489;-59
2022/03/13 06:42:33;;;;;;;1.73;1.63;;;18.00;43.20;;;;;;5074743;28;20028;-59
2022/03/13 06:45:00;;;;;;;1.83;1.52;;;18.00;43.20;;;;;;5074677;28;20033;-59
2022/03/13 06:47:26;;;;;;;1.70;1.60;;;18.00;43.20;;;;;;5074461;28;20016;-59
2022/03/13 06:49:53;;;;;;;2.22;1.80;;;18.00;43.20;;;;;;5074102;28;20036;-59
2022/03/13 06:52:18;;;;;;;1.90;1.58;;;18.10;43.20;;;;;;5074407;28;20024;-59
2022/03/13 06:54:44;;;;;;;1.88;1.60;;;18.00;43.40;;;;;;5074354;28;20524;-59
2022/03/13 06:57:12;;;;;;;2.13;1.60;;;18.00;43.20;;;;;;5074183;28;20489;-59
2022/03/13 06:59:39;;;;;;;2.47;1.70;;;18.00;43.20;;;;;;5074464;28;20086;-59
2022/03/13 07:02:05;;;;;;;1.80;1.70;;;18.00;43.20;;;;;;5073976;28;20044;-59
2022/03/13 07:04:31;;;;;;;1.45;1.35;;;18.00;43.20;;;;;;5073827;28;20483;-59
2022/03/13 07:06:58;;;;;;;1.80;1.60;;;18.00;43.20;;;;;;5074416;28;20008;-59
2022/03/13 07:09:26;;;;;;;2.17;1.70;;;18.00;43.20;;;;;;5074172;28;20493;-59
2022/03/13 07:11:51;;;;;;;1.92;1.60;;;18.00;43.20;;;;;;5075010;28;20024;-59
2022/03/13 07:14:19;;;;;;;1.88;1.63;;;18.00;43.20;;;;;;5074750;28;20027;-59
2022/03/13 07:16:45;;;;;;;2.63;1.58;;;18.00;43.20;;;;;;5074439;28;20045;-59
2022/03/13 07:19:11;;;;;;;1.60;1.50;;;18.00;43.20;;;;;;5075304;28;20020;-59
2022/03/13 07:21:38;;;;;;;1.70;1.60;;;18.00;43.20;;;;;;5074367;28;20017;-59
2022/03/13 07:24:04;;;;;;;1.50;1.40;;;18.00;43.20;;;;;;5073948;28;20134;-59
2022/03/13 07:26:31;;;;;;;1.90;1.50;;;18.10;43.20;;;;;;5074321;28;20482;-58
2022/03/13 07:28:57;;;;;;;2.05;1.65;;;18.10;43.20;;;;;;5073821;28;20103;-58
2022/03/13 07:31:23;;;;;;;1.90;1.33;;;18.00;43.20;;;;;;5073401;28;20117;-59
2022/03/13 07:33:49;;;;;;;1.48;1.38;;;18.00;43.20;;;;;;5073592;28;20021;-59
2022/03/13 07:36:16;;;;;;;2.28;1.80;;;18.10;43.40;;;;;;5055899;28;20021;-59
2022/03/13 07:38:42;;;;;;;1.45;1.30;;;18.10;43.20;;;;;;5055872;28;20099;-59
2022/03/13 07:41:08;;;;;;;1.90;1.70;;;18.10;43.20;;;;;;5073352;28;20024;-59
2022/03/13 07:43:34;;;;;;;1.75;1.50;;;18.00;43.20;;;;;;5073778;28;20013;-59
2022/03/13 07:46:02;;;;;;;2.25;1.63;;;18.00;43.20;;;;;;5074242;28;20037;-59
2022/03/13 07:48:29;;;;;;;2.42;1.70;;;18.00;43.20;;;;;;5074305;28;20058;-59
2022/03/13 07:50:57;;;;;;;1.92;1.73;;;18.10;43.20;;;;;;5074162;28;20104;-59
2022/03/13 07:53:26;;;;;;;1.90;1.70;;;18.10;43.20;;;;;;5074403;28;20023;-59
2022/03/13 07:55:52;;;;;;;3.70;1.65;;;18.10;43.20;;;;;;5076079;28;20031;-59
2022/03/13 07:58:19;;;;;;;1.70;1.50;;;18.10;43.10;;;;;;5076629;28;20008;-59
2022/03/13 08:00:45;;;;;;;1.92;1.65;;;18.10;43.10;;;;;;5075632;28;20017;-58
2022/03/13 08:03:14;;;;;;;1.60;1.50;;;18.10;43.00;;;;;;5058976;28;20066;-59
2022/03/13 08:05:40;;;;;;;2.17;1.98;;;18.10;43.00;;;;;;5057240;28;20021;-59
2022/03/13 08:08:07;;;;;;;2.47;1.80;;;18.10;43.00;;;;;;5057845;28;20024;-58
2022/03/13 08:10:32;;;;;;;1.90;1.77;;;18.10;43.00;;;;;;5056689;28;20115;-58
2022/03/13 08:12:59;;;;;;;1.80;1.70;;;18.10;43.10;;;;;;5076239;28;20074;-58
2022/03/13 08:15:26;;;;;;;2.40;1.55;;;18.10;43.10;;;;;;5061112;28;20009;-58
2022/03/13 08:17:52;;;;;;;2.40;1.80;;;18.10;43.10;;;;;;5076436;28;20064;-58
2022/03/13 08:20:18;;;;;;;2.50;2.15;;;18.10;43.10;;;;;;5074529;28;20035;-58
2022/03/13 08:22:45;;;;;;;2.15;1.95;;;18.10;43.10;;;;;;5073931;28;20016;-58
2022/03/13 08:25:16;;;;;;;2.53;2.28;;;18.10;43.10;;;;;;5074064;28;20478;-59
2022/03/13 08:27:42;;;;;;;2.07;1.87;;;18.10;43.10;;;;;;5073870;28;20044;-59
2022/03/13 08:30:11;;;;;;;2.70;2.00;;;18.10;43.10;;;;;;5073661;28;20279;-58
2022/03/13 08:32:38;;;;;;;2.35;2.08;;;18.10;43.00;;;;;;5073339;28;20024;-58
2022/03/13 08:35:05;;;;;;;2.20;1.88;;;18.10;43.00;;;;;;5074209;28;20019;-59
2022/03/13 08:37:33;;;;;;;1.67;1.58;;;18.10;43.00;;;;;;5075860;28;20025;-58
2022/03/13 08:39:59;;;;;;;2.20;2.00;;;18.10;42.90;;;;;;5078729;28;20021;-58
2022/03/13 08:42:26;;;;;;;2.10;1.90;;;18.10;43.00;;;;;;5079376;28;20146;-59
2022/03/13 08:44:54;;;;;;;2.35;2.15;;;18.10;42.90;;;;;;5079329;28;20017;-59
2022/03/13 08:47:21;;;;;;;2.20;1.98;;;18.10;42.90;;;;;;5079317;28;20101;-57
2022/03/13 08:49:47;;;;;;;3.15;2.10;;;18.10;42.90;;;;;;5077992;28;20539;-59
2022/03/13 08:52:14;;;;;;;2.45;1.90;;;18.10;42.90;;;;;;5077844;28;20043;-58
2022/03/13 08:54:40;;;;;;;2.47;2.00;;;18.10;42.90;;;;;;5077559;28;20035;-57
2022/03/13 08:57:06;;;;;;;2.22;2.00;;;18.10;42.80;;;;;;5077411;28;20095;-58
2022/03/13 08:59:36;;;;;;;2.70;1.98;;;18.20;42.90;;;;;;5077841;28;20023;-58
2022/03/13 09:02:02;;;;;;;4.45;2.25;;;18.10;42.80;;;;;;5077344;28;20024;-57
2022/03/13 09:04:29;;;;;;;2.30;2.10;;;18.10;42.80;;;;;;5059495;28;20036;-58
2022/03/13 09:06:56;;;;;;;2.67;2.08;;;18.10;42.80;;;;;;5077039;28;20037;-58
2022/03/13 09:09:22;;;;;;;2.25;2.00;;;18.20;42.80;;;;;;5076612;28;20505;-58
2022/03/13 09:11:48;;;;;;;2.30;2.10;;;18.10;42.80;;;;;;5077086;28;20016;-58
2022/03/13 09:14:14;;;;;;;2.28;1.80;;;18.20;42.80;;;;;;5076968;28;20497;-58
2022/03/13 09:16:41;;;;;;;2.45;2.15;;;18.20;42.80;;;;;;5076647;28;20040;-57
2022/03/13 09:19:07;;;;;;;2.17;1.98;;;18.20;42.80;;;;;;5077181;28;20470;-60
2022/03/13 09:21:38;;;;;;;2.20;2.00;;;18.10;42.70;;;;;;5077563;28;20109;-59
2022/03/13 09:24:07;;;;;;;3.70;2.22;;;18.10;42.70;;;;;;5077119;28;20040;-57
2022/03/13 09:26:40;;;;;;;2.53;2.00;;;18.20;42.70;;;;;;5077501;28;20096;-58
2022/03/13 09:29:07;;;;;;;3.22;1.98;;;18.20;42.70;;;;;;5081555;28;20099;-58
2022/03/13 09:31:33;;;;;;;3.55;2.28;;;18.20;42.60;;;;;;5080956;28;20052;-58
2022/03/13 09:33:59;;;;;;;2.33;1.85;;;18.20;42.70;;;;;;5060038;28;20479;-58
2022/03/13 09:36:25;;;;;;;4.38;2.30;;;18.20;42.60;;;;;;5078198;28;20020;-58
2022/03/13 09:38:51;;;;;;;3.45;1.85;;;18.20;42.60;;;;;;5061032;28;20036;-58
2022/03/13 09:41:18;;;;;;;2.00;1.80;;;18.20;42.70;;;;;;5077671;28;20025;-58
2022/03/13 09:43:43;;;;;;;2.53;2.00;;;18.20;42.60;;;;;;5077320;28;20027;-57
2022/03/13 09:46:09;;;;;;;2.78;2.10;;;18.20;42.70;;;;;;5075881;28;20471;-58
2022/03/13 09:48:36;;;;;;;2.40;1.92;;;18.20;42.70;;;;;;5076126;28;20016;-58
2022/03/13 09:51:07;;;;;;;2.42;2.03;;;18.20;42.60;;;;;;5075131;28;20063;-58
2022/03/13 09:53:36;;;;;;;2.72;2.40;;;18.20;42.60;;;;;;5058515;28;20013;-58
2022/03/13 09:56:03;;;;;;;3.00;2.40;;;18.20;42.50;;;;;;5076823;28;20020;-58
2022/03/13 09:58:29;;;;;;;2.15;1.90;;;18.20;42.50;;;;;;5077568;28;20044;-58
2022/03/13 10:00:56;;;;;;;3.28;2.13;;;18.20;42.50;;;;;;5057763;28;20021;-58
2022/03/13 10:03:23;;;;;;;2.15;1.95;;;18.20;42.50;;;;;;5075374;28;20024;-58
2022/03/13 10:05:49;;;;;;;2.45;2.25;;;18.20;42.40;;;;;;5075078;28;20092;-58
2022/03/13 10:08:16;;;;;;;2.55;2.05;;;18.20;42.40;;;;;;5075285;28;20016;-59
2022/03/13 10:10:46;;;;;;;2.28;2.00;;;18.20;42.30;;;;;;5074870;28;20474;-58
2022/03/13 10:13:16;;;;;;;2.25;2.05;;;18.20;42.30;;;;;;5075192;28;20036;-58
2022/03/13 10:15:42;;;;;;;2.20;2.00;;;18.20;42.30;;;;;;5057169;28;20013;-59
2022/03/13 10:18:12;;;;;;;2.40;1.95;;;18.20;42.30;;;;;;5075198;28;20045;-58
2022/03/13 10:20:41;;;;;;;2.53;2.20;;;18.20;42.30;;;;;;5075062;28;20355;-59
2022/03/13 10:23:10;;;;;;;1.98;1.77;;;18.20;42.30;;;;;;5057651;28;20032;-58
2022/03/13 10:25:39;;;;;;;2.65;2.00;;;18.20;42.20;;;;;;5074972;28;20024;-58
2022/03/13 10:28:31;;;;;;;2.80;1.83;;;18.30;42.30;;;;;;5074823;28;20092;-58
2022/03/13 10:31:00;;;;;;;1.88;1.70;;;18.30;42.80;;;;;;5074832;28;20059;-58
2022/03/13 10:33:27;;;;;;;2.10;1.90;;;18.30;42.20;;;;;;5074537;28;20032;-58
2022/03/13 10:36:10;;;;;;;2.53;1.95;;;18.30;42.20;;;;;;5074753;28;20013;-58
2022/03/13 10:38:38;;;;;;;2.72;2.00;;;18.20;42.20;;;;;;5075363;28;20017;-58
2022/03/13 10:41:10;;;;;;;2.35;1.90;;;18.30;42.20;;;;;;5077251;28;20021;-57
2022/03/13 10:43:51;;;;;;;2.33;1.80;;;18.30;42.70;;;;;;5074664;28;20024;-56
2022/03/13 10:46:27;;;;;;;2.08;1.90;;;18.30;42.10;;;;;;5074571;28;20548;-56
2022/03/13 10:48:53;;;;;;;2.13;1.92;;;18.30;42.10;;;;;;5074423;28;20020;-57
2022/03/13 10:51:18;;;;;;;2.30;2.10;;;18.30;42.10;;;;;;5074378;28;20059;-57
2022/03/13 10:53:45;;;;;;;2.08;1.83;;;18.30;42.30;;;;;;5056719;28;20005;-57
2022/03/13 10:56:14;;;;;;;1.73;1.63;;;18.30;42.00;;;;;;5074520;28;20099;-56
2022/03/13 10:58:45;;;;;;;2.47;2.13;;;18.30;42.00;;;;;;5074565;28;20021;-57
2022/03/13 11:01:11;;;;;;;;;;;18.30;41.90;;;;;;5076044;28;20021;-58
2022/03/13 11:03:48;;;;;;;3.30;2.22;;;18.40;42.00;;;;;;5074885;28;19939;-58
2022/03/13 11:06:15;;;;;;;2.33;2.08;;;18.40;42.00;;;;;;5058615;28;20013;-57
2022/03/13 11:08:41;;;;;;;2.58;1.92;;;18.30;41.90;;;;;;5056204;28;20596;-55
2022/03/13 11:11:15;;;;;;;1.88;1.77;;;18.30;41.90;;;;;;5074059;28;20504;-56
2022/03/13 11:13:42;;;;;;;1.90;1.70;;;18.30;41.90;;;;;;5057782;28;20037;-56
2022/03/13 11:16:09;;;;;;;2.10;1.90;;;18.40;41.90;;;;;;5074173;28;20062;-57
2022/03/13 11:18:37;;;;;;;1.92;1.70;;;18.30;41.90;;;;;;5056395;28;20043;-55
2022/03/13 11:21:06;;;;;;;3.83;2.13;;;18.30;41.90;;;;;;5074309;28;20095;-58
2022/03/13 11:23:33;;;;;;;1.92;1.73;;;18.40;41.90;;;;;;5056933;28;20013;-58
2022/03/13 11:25:59;;;;;;;2.08;1.88;;;18.30;41.90;;;;;;5074457;28;20025;-58
2022/03/13 11:28:28;;;;;;;2.75;1.83;;;18.30;41.70;;;;;;5073713;28;20012;-58
2022/03/13 11:30:54;;;;;;;1.80;1.70;;;18.30;41.90;;;;;;5074405;28;20029;-58
2022/03/13 11:33:31;;;;;;;3.08;2.30;;;18.40;41.80;;;;;;5077511;28;20047;-58
2022/03/13 11:36:26;;;;;;;1.77;1.67;;;18.40;41.90;;;;;;5077045;28;20009;-58
2022/03/13 11:39:03;;;;;;;2.40;2.05;;;18.40;41.90;;;;;;5075298;28;20061;-58
2022/03/13 11:41:42;;;;;;;2.30;2.00;;;18.40;41.90;;;;;;5074884;28;20023;-57
2022/03/13 11:44:23;;;;;;;1.95;1.77;;;18.40;41.80;;;;;;5075322;28;20348;-59
2022/03/13 11:46:49;;;;;;;1.98;1.75;;;18.40;41.80;;;;;;5075646;28;20028;-58
2022/03/13 11:49:30;;;;;;;2.05;1.73;;;18.40;41.80;;;;;;5074789;28;20016;-58
2022/03/13 11:52:17;;;;;;;2.38;2.08;;;18.40;41.80;;;;;;5056830;28;20078;-58
2022/03/13 11:55:08;;;;;;;1.77;1.50;;;18.40;41.70;;;;;;5074432;28;20024;-58
2022/03/13 11:57:45;;;;;;;2.63;2.08;;;18.40;41.70;;;;;;5073802;28;20032;-58
2022/03/13 12:00:11;;;;;;;2.00;1.80;;;18.50;41.70;;;;;;5074562;28;20378;-58
2022/03/13 12:02:43;;;;;;;2.20;1.60;;;18.50;41.60;;;;;;5075010;28;20028;-58
2022/03/13 12:05:28;;;;;;;1.92;1.63;;;18.40;41.70;;;;;;5055980;28;20039;-56
2022/03/13 12:07:54;;;;;;;2.45;1.98;;;18.40;41.60;;;;;;5074153;28;20048;-58
2022/03/13 12:10:35;;;;;;;3.15;1.77;;;18.40;41.60;;;;;;5056386;28;20458;-57
2022/03/13 12:13:06;;;;;;;2.08;1.80;;;18.50;41.70;;;;;;5074348;28;20013;-57
2022/03/13 12:15:32;;;;;;;2.72;1.98;;;18.50;41.50;;;;;;5073597;28;20077;-55
2022/03/13 12:18:01;;;;;;;2.70;1.90;;;18.50;41.50;;;;;;5073908;28;20040;-55
2022/03/13 12:20:28;;;;;;;1.67;1.55;;;18.50;41.50;;;;;;5074196;28;20020;-59
2022/03/13 12:22:54;;;;;;;2.65;1.92;;;18.50;41.40;;;;;;5073270;28;20068;-58
2022/03/13 12:25:27;;;;;;;1.88;1.73;;;18.50;41.50;;;;;;5073267;28;20055;-58
2022/03/13 12:27:54;;;;;;;2.65;1.88;;;18.50;41.50;;;;;;5073325;28;20025;-58
2022/03/13 12:30:26;;;;;;;2.13;1.75;;;18.50;41.40;;;;;;5073018;28;20058;-59
2022/03/13 12:32:59;;;;;;;2.30;2.00;;;18.50;41.50;;;;;;5072930;28;20009;-59
2022/03/13 12:35:26;;;;;;;2.47;2.13;;;18.50;41.40;;;;;;5072768;28;20005;-59
2022/03/13 12:37:54;;;;;;;2.50;1.90;;;18.50;41.40;;;;;;5072907;28;20025;-59
2022/03/13 12:40:23;;;;;;;1.70;1.60;;;18.50;41.20;;;;;;5072946;28;20024;-59
2022/03/13 12:42:55;;;;;;;2.20;1.73;;;18.50;41.40;;;;;;5056097;28;20059;-59
2022/03/13 12:45:22;;;;;;;2.47;2.15;;;18.50;41.30;;;;;;5073878;28;20025;-59
2022/03/13 12:47:49;;;;;;;2.35;1.75;;;18.50;41.30;;;;;;5074733;28;20017;-58
2022/03/13 12:50:18;;;;;;;2.10;1.90;;;18.50;41.30;;;;;;5057286;28;20032;-59